Bandana, Kentucky
Current Conditions -  °F | °C
As of 12:55 PM on Thursday 23 Oct 2014 (Local Time) from KM30 Reporting Station
Clear Clear  
Wind Chill: 58°   Ceiling: Unl
Heat Index: 58°   Visibility: 10mi
Dew Point: 46°   Wind: 0mph
Humidity: 62%   Direction: NA
Pressure: 30.2"   Gusts: NA
Location:  37.15°N, 88.95°W
Report Text: KM30 231755Z AUTO 00000KT 10SM CLR 15/08 A3020 RMK AO2 T01470075 10151 20027
Loading
Personal Weather Stations






























Interactive Weather Map New forecast layout! Learn more

10-Day Weather Forecast

Advertisements
Track Severe Weather on mobile